PDT,Max TemperatureF,Mean TemperatureF,Min TemperatureF,Max Dew PointF,MeanDew PointF,Min DewpointF,Max Humidity, Mean Humidity, Min Humidity, Max Sea Level PressureIn, Mean Sea Level PressureIn, Min Sea Level PressureIn, Max VisibilityMiles, Mean VisibilityMiles, Min VisibilityMiles, Max Wind SpeedMPH, Mean Wind SpeedMPH, Max Gust SpeedMPH,PrecipitationIn, CloudCover, Events, WindDirDegrees
2014-4-1,55,50,44,46,45,41,100,93,62,29.98,29.92,29.85,10,7,2,17,7,23,0.00,8,Rain,154
2014-4-2,59,50,41,45,42,41,100,74,51,30.08,30.04,29.92,10,10,10,8,4,,0.00,3,,306
2014-4-3,64,52,41,46,44,41,100,71,42,30.13,30.08,30.01,10,10,10,10,6,,0.00,4,,176
2014-4-4,59,52,44,48,46,43,100,82,63,30.04,30.01,29.98,10,10,10,15,4,18,0.00,5,Rain,270
2014-4-5,68,54,41,46,43,41,100,68,37,30.14,30.09,30.04,10,10,10,13,2,,0.00,0,,324
2014-4-6,77,60,42,50,47,43,100,62,34,30.22,30.15,30.08,10,10,10,13,4,18,0.00,1,,333
2014-4-7,78,63,48,59,54,48,100,69,44,30.17,30.11,30.06,10,10,10,6,2,,0.00,0,,134
2014-4-8,84,68,53,59,54,50,100,65,32,30.12,30.06,29.99,10,10,10,6,2,,0.00,4,,359
2014-4-9,80,66,51,57,53,48,100,69,34,30.05,30.01,29.95,10,10,10,7,5,,0.00,2,,178
2014-4-10,82,64,46,54,50,46,100,68,30,30.01,29.95,29.87,10,10,10,7,3,,0.00,0,,168
2014-4-11,78,63,48,59,53,48,100,75,41,29.90,29.85,29.79,10,10,8,9,3,,0.00,5,,209
2014-4-12,71,58,46,55,52,46,100,79,57,29.88,29.84,29.80,10,10,5,14,7,,0.00,0,,185
2014-4-13,80,64,48,54,47,37,100,66,21,30.03,29.97,29.92,10,10,6,14,6,21,0.00,2,,351
2014-4-14,77,60,44,57,52,45,100,70,38,30.10,30.04,30.00,10,10,10,7,5,,0.00,1,,150
2014-4-15,80,63,46,55,51,43,100,64,26,30.00,29.92,29.84,10,10,10,7,5,,0.00,1,,209
2014-4-16,80,64,48,55,49,41,100,65,24,29.89,29.84,29.78,10,10,10,12,2,,0.00,1,,300
2014-4-17,82,65,48,55,52,48,100,68,35,29.83,29.79,29.75,10,10,10,15,7,,0.00,1,,171
2014-4-18,80,66,53,55,50,48,94,60,32,29.89,29.85,29.80,10,10,10,16,5,,0.00,1,,284
2014-4-19,75,60,46,54,47,41,100,64,29,30.05,29.99,29.89,10,10,10,13,9,,0.00,1,,194
2014-4-20,82,64,46,54,46,34,100,53,17,30.12,30.08,30.00,10,10,10,9,5,17,0.00,1,,322
2014-4-21,75,62,48,48,41,32,94,50,21,30.03,29.98,29.91,10,10,10,14,8,22,0.00,7,,172
2014-4-22,66,56,44,52,42,32,100,63,30,30.07,30.01,29.93,10,10,10,13,7,,0.00,4,,194
2014-4-23,71,54,37,48,40,32,100,65,23,30.12,30.08,30.03,10,10,10,12,4,18,0.00,1,,327
2014-4-24,71,58,46,57,50,45,100,77,41,30.09,30.02,29.94,10,10,8,14,7,17,0.00,5,,168
2014-4-25,55,52,48,55,52,48,100,99,94,29.90,29.83,29.78,10,7,2,10,6,,0.00,8,Rain,167
2014-4-26,64,52,41,52,45,39,100,79,42,30.02,29.94,29.84,10,8,0,17,2,,0.00,6,Fog,206
2014-4-27,66,57,48,50,47,41,100,72,42,30.10,30.07,30.03,10,10,10,8,6,,0.00,6,,193
2014-4-28,75,60,44,48,42,32,100,51,21,30.21,30.16,30.12,10,10,10,15,7,22,0.00,0,,339
2014-4-29,82,66,51,54,47,41,76,51,28,30.19,30.13,30.04,10,10,10,9,5,,0.00,1,,56
2014-4-30,87,69,51,57,50,43,100,53,22,30.11,30.05,29.99,10,10,10,7,1,,0.00,1,,159